createdAt,value
2023-04-29T00:02:15.317Z,0.60
2023-04-29T00:06:18.156Z,0.65
2023-04-29T00:10:20.033Z,0.68
2023-04-29T00:14:21.789Z,0.60
2023-04-29T00:23:55.666Z,0.50
2023-04-29T00:28:01.839Z,0.50
2023-04-29T00:32:03.674Z,0.70
2023-04-29T00:36:05.767Z,0.70
2023-04-29T00:40:08.696Z,0.55
2023-04-29T00:44:10.596Z,0.60
2023-04-29T00:48:13.194Z,0.50
2023-04-29T00:52:16.632Z,0.50
2023-04-29T00:56:21.018Z,0.50
2023-04-29T01:00:22.905Z,0.50
2023-04-29T01:04:24.729Z,0.60
2023-04-29T01:08:57.528Z,0.70
2023-04-29T01:13:18.060Z,0.68
2023-04-29T01:17:26.928Z,0.60
2023-04-29T01:21:31.828Z,0.90
2023-04-29T01:25:33.792Z,0.80
2023-04-29T01:29:59.580Z,1.02
2023-04-29T01:34:09.375Z,0.80
2023-04-29T01:38:20.520Z,0.82
2023-04-29T01:42:48.743Z,0.50
2023-04-29T01:46:54.689Z,0.60
2023-04-29T01:51:01.493Z,0.70
2023-04-29T01:55:03.937Z,0.68
2023-04-29T01:59:19.000Z,0.60
2023-04-29T02:03:34.533Z,0.50
2023-04-29T02:07:37.616Z,0.50
2023-04-29T02:11:39.356Z,0.50
2023-04-29T02:15:41.189Z,0.60
2023-04-29T02:19:43.341Z,0.90
2023-04-29T02:23:45.649Z,1.00
2023-04-29T02:27:47.460Z,1.00
2023-04-29T02:31:49.290Z,0.70
2023-04-29T02:35:51.439Z,0.90
2023-04-29T02:39:53.608Z,0.80
2023-04-29T02:43:55.555Z,0.93
2023-04-29T02:47:57.406Z,1.20
2023-04-29T02:51:59.394Z,1.10
2023-04-29T02:56:01.235Z,0.80
2023-04-29T03:00:03.921Z,1.00
2023-04-29T03:04:06.832Z,0.80
2023-04-29T03:08:10.360Z,0.65
2023-04-29T03:12:12.478Z,0.60
2023-04-29T03:16:17.138Z,0.68
2023-04-29T03:20:20.675Z,0.80
2023-04-29T03:24:22.819Z,0.80
2023-04-29T03:28:25.128Z,0.80
2023-04-29T03:32:27.432Z,1.10
2023-04-29T03:36:29.658Z,1.00
2023-04-29T03:40:41.802Z,1.20
2023-04-29T03:44:44.051Z,1.05
2023-04-29T03:48:46.063Z,0.70
2023-04-29T03:52:48.561Z,1.20
2023-04-29T03:56:52.463Z,1.15
2023-04-29T04:00:55.302Z,1.38
2023-04-29T04:09:04.208Z,0.90
2023-04-29T04:13:08.500Z,0.80
2023-04-29T04:17:11.380Z,0.70
2023-04-29T04:21:13.685Z,0.93
2023-04-29T04:25:19.641Z,0.87
2023-04-29T04:29:21.959Z,0.80
2023-04-29T04:33:35.761Z,1.50
2023-04-29T04:37:38.061Z,1.70
2023-04-29T04:41:40.668Z,1.92
2023-04-29T04:45:43.310Z,1.45
2023-04-29T04:49:46.328Z,2.13
2023-04-29T04:53:48.405Z,1.92
2023-04-29T04:57:55.108Z,1.90
2023-04-29T05:01:57.452Z,1.30
2023-04-29T05:06:00.727Z,1.10
2023-04-29T05:10:06.711Z,1.20
2023-04-29T05:14:12.615Z,1.00
2023-04-29T05:18:14.529Z,1.08
2023-04-29T05:22:18.608Z,1.85
2023-04-29T05:26:22.005Z,1.67
2023-04-29T05:30:25.745Z,2.10
2023-04-29T05:34:27.893Z,1.35
2023-04-29T05:38:29.697Z,1.25
2023-04-29T05:42:39.553Z,1.27
2023-04-29T05:46:41.459Z,1.70
2023-04-29T05:50:43.453Z,2.17
2023-04-29T05:54:45.201Z,2.10
2023-04-29T05:58:47.610Z,1.95
2023-04-29T06:02:58.089Z,1.77
2023-04-29T06:07:00.905Z,1.40
2023-04-29T06:11:28.122Z,1.40
2023-04-29T06:15:29.887Z,1.10
2023-04-29T06:19:33.578Z,0.80
2023-04-29T06:23:35.749Z,1.13
2023-04-29T06:27:42.800Z,1.35
2023-04-29T06:31:44.993Z,1.20
2023-04-29T06:35:48.192Z,0.80
2023-04-29T06:40:09.343Z,1.10
2023-04-29T06:44:35.085Z,1.30
2023-04-29T06:49:15.079Z,1.80
2023-04-29T06:53:17.013Z,1.58
2023-04-29T06:57:18.764Z,1.83
2023-04-29T07:01:21.603Z,2.10
2023-04-29T07:05:26.172Z,2.90
2023-04-29T07:09:27.944Z,3.05
2023-04-29T07:13:29.892Z,3.30
2023-04-29T07:17:31.667Z,4.22
2023-04-29T07:21:33.511Z,4.00
2023-04-29T07:25:35.985Z,4.50
2023-04-29T07:29:40.180Z,4.38
2023-04-29T07:33:42.276Z,4.28
2023-04-29T07:37:45.829Z,3.30
2023-04-29T07:41:47.650Z,3.13
2023-04-29T07:45:49.909Z,3.30
2023-04-29T07:49:52.738Z,4.90
2023-04-29T07:53:54.474Z,4.63
2023-04-29T07:57:57.537Z,5.00
2023-04-29T08:02:01.562Z,5.28
2023-04-29T08:06:04.808Z,4.72
2023-04-29T08:10:07.156Z,4.10
2023-04-29T08:14:12.234Z,4.50
2023-04-29T08:18:13.943Z,4.40
2023-04-29T08:22:15.993Z,4.55
2023-04-29T08:26:17.953Z,3.97
2023-04-29T08:30:19.828Z,5.13
2023-04-29T08:34:21.587Z,3.20
2023-04-29T08:38:23.295Z,4.25
2023-04-29T08:42:36.940Z,3.40
2023-04-29T08:46:38.848Z,2.65
2023-04-29T08:50:41.766Z,3.20
2023-04-29T08:54:43.504Z,2.50
2023-04-29T08:58:46.407Z,3.13
2023-04-29T09:02:51.717Z,2.95
2023-04-29T09:06:56.732Z,4.15
2023-04-29T09:10:59.063Z,3.90
2023-04-29T09:15:01.064Z,3.17
2023-04-29T09:19:02.891Z,2.85
2023-04-29T09:23:04.802Z,3.15
2023-04-29T09:27:06.651Z,4.88
2023-04-29T09:31:08.659Z,4.10
2023-04-29T09:35:27.016Z,3.42
2023-04-29T09:39:38.961Z,3.78
2023-04-29T09:43:42.430Z,3.40
2023-04-29T09:47:44.842Z,3.28
2023-04-29T09:51:57.235Z,2.78
2023-04-29T09:56:02.955Z,3.55
2023-04-29T10:00:05.188Z,4.82
2023-04-29T10:04:16.830Z,3.50
2023-04-29T10:08:18.699Z,2.60
2023-04-29T10:12:21.006Z,2.00
2023-04-29T10:16:35.161Z,3.13
2023-04-29T10:20:40.211Z,3.58
2023-04-29T10:24:43.198Z,2.15
2023-04-29T10:28:47.510Z,2.40
2023-04-29T10:32:52.479Z,1.90
2023-04-29T10:36:54.772Z,2.40
2023-04-29T10:40:58.305Z,1.70
2023-04-29T10:45:19.122Z,2.60
2023-04-29T10:49:24.201Z,1.63
2023-04-29T10:53:28.563Z,1.70
2023-04-29T10:57:30.284Z,1.98
2023-04-29T11:01:48.245Z,1.83
2023-04-29T11:06:09.021Z,1.42
2023-04-29T11:10:12.788Z,1.60
2023-04-29T11:14:16.409Z,1.50
2023-04-29T11:18:18.842Z,2.00
2023-04-29T11:22:24.024Z,1.60
2023-04-29T11:26:25.812Z,2.00
2023-04-29T11:30:28.811Z,1.73
2023-04-29T11:34:30.618Z,2.17
2023-04-29T11:38:32.521Z,1.77
2023-04-29T11:42:45.477Z,2.00
2023-04-29T11:46:47.230Z,1.95
2023-04-29T11:50:51.706Z,2.28
2023-04-29T11:54:53.675Z,2.78
2023-04-29T11:58:58.744Z,2.90
2023-04-29T12:03:00.938Z,2.90
2023-04-29T12:07:03.843Z,2.85
2023-04-29T12:11:07.056Z,2.10
2023-04-29T12:15:10.360Z,2.88
2023-04-29T12:19:12.532Z,3.00
2023-04-29T12:23:16.339Z,2.30
2023-04-29T12:27:18.362Z,2.00
2023-04-29T12:31:20.093Z,2.40
2023-04-29T12:35:22.101Z,2.60
2023-04-29T12:39:24.096Z,3.28
2023-04-29T12:43:30.477Z,2.38
2023-04-29T12:47:34.807Z,2.58
2023-04-29T12:51:37.008Z,2.22
2023-04-29T12:55:38.841Z,2.20
2023-04-29T12:59:41.449Z,2.38
2023-04-29T13:03:43.567Z,1.88
2023-04-29T13:07:45.452Z,2.00
2023-04-29T13:11:47.318Z,2.00
2023-04-29T13:15:49.368Z,1.50
2023-04-29T13:19:52.253Z,2.20
2023-04-29T13:23:55.081Z,1.50
2023-04-29T13:27:56.772Z,1.67
2023-04-29T13:31:58.637Z,1.88
2023-04-29T13:36:00.918Z,1.90
2023-04-29T13:40:02.769Z,1.95
2023-04-29T13:44:07.567Z,1.85
2023-04-29T14:01:10.076Z,1.60
2023-04-29T14:05:01.799Z,1.92
2023-04-29T14:09:04.420Z,2.00
2023-04-29T14:13:06.466Z,1.60
2023-04-29T14:17:08.381Z,1.67
2023-04-29T14:21:11.081Z,1.92
2023-04-29T14:25:12.758Z,1.30
2023-04-29T14:29:14.506Z,1.60
2023-04-29T14:33:16.261Z,1.10
2023-04-29T14:37:18.021Z,1.00
2023-04-29T14:41:21.892Z,1.45
2023-04-29T14:45:23.751Z,1.80
2023-04-29T14:49:26.176Z,1.65
2023-04-29T14:53:27.970Z,0.80
2023-04-29T14:57:30.005Z,1.60
2023-04-29T15:01:32.404Z,1.35
2023-04-29T15:05:34.800Z,1.30
2023-04-29T15:09:36.829Z,1.30
2023-04-29T15:13:39.191Z,1.50
2023-04-29T15:17:40.943Z,1.80
2023-04-29T15:21:42.674Z,2.28
2023-04-29T15:25:44.941Z,1.70
2023-04-29T15:29:47.188Z,1.95
2023-04-29T15:33:48.905Z,1.30
2023-04-29T15:37:50.656Z,1.30
2023-04-29T15:41:52.881Z,1.10
2023-04-29T15:45:56.448Z,1.70
2023-04-29T15:49:58.199Z,1.40
2023-04-29T15:54:00.059Z,1.00
2023-04-29T15:58:01.793Z,1.35
2023-04-29T16:02:03.800Z,1.33
2023-04-29T16:06:05.950Z,1.65
2023-04-29T16:10:07.922Z,1.40
2023-04-29T16:14:09.665Z,1.40
2023-04-29T16:18:12.173Z,1.42
2023-04-29T16:22:14.049Z,1.50
2023-04-29T16:26:15.810Z,1.73
2023-04-29T16:30:17.817Z,1.40
2023-04-29T16:34:20.186Z,1.40
2023-04-29T16:38:22.078Z,1.38
2023-04-29T16:42:24.048Z,1.40
2023-04-29T16:46:26.227Z,1.40
2023-04-29T16:50:28.417Z,1.25
2023-04-29T16:54:31.416Z,1.40
2023-04-29T16:58:33.145Z,1.10
2023-04-29T17:02:36.111Z,1.40
2023-04-29T17:06:39.784Z,1.30
2023-04-29T17:10:41.910Z,1.08
2023-04-29T17:14:44.368Z,1.30
2023-04-29T17:18:46.496Z,1.20
2023-04-29T17:22:48.249Z,1.10
2023-04-29T17:26:50.386Z,1.00
2023-04-29T17:30:55.784Z,1.30
2023-04-29T17:34:59.535Z,1.15
2023-04-29T17:39:01.355Z,1.00
2023-04-29T17:43:03.098Z,1.00
2023-04-29T17:47:05.438Z,1.30
2023-04-29T17:51:07.266Z,1.10
2023-04-29T17:55:10.567Z,1.45
2023-04-29T17:59:12.760Z,1.48
2023-04-29T18:03:14.562Z,1.55
2023-04-29T18:07:16.920Z,1.23
2023-04-29T18:11:18.686Z,1.10
2023-04-29T18:15:23.879Z,1.10
2023-04-29T18:19:25.837Z,1.30
2023-04-29T18:23:27.601Z,1.10
2023-04-29T18:27:29.514Z,1.33
2023-04-29T18:31:31.542Z,1.17
2023-04-29T18:35:35.244Z,1.40
2023-04-29T18:39:39.165Z,1.38
2023-04-29T18:43:41.211Z,1.20
2023-04-29T18:47:42.940Z,1.00
2023-04-29T18:51:48.187Z,1.13
2023-04-29T18:55:50.163Z,1.30
2023-04-29T18:59:53.679Z,1.25
2023-04-29T19:03:57.550Z,1.50
2023-04-29T19:07:59.430Z,1.35
2023-04-29T19:12:05.389Z,1.60
2023-04-29T19:16:07.274Z,1.58
2023-04-29T19:20:10.079Z,1.45
2023-04-29T19:24:11.918Z,1.60
2023-04-29T19:28:13.753Z,1.30
2023-04-29T19:32:15.536Z,1.60
2023-04-29T19:36:17.250Z,1.23
2023-04-29T19:40:19.443Z,1.58
2023-04-29T19:44:21.521Z,1.50
2023-04-29T19:48:23.706Z,1.70
2023-04-29T19:52:26.772Z,1.65
2023-04-29T19:56:28.488Z,1.85
2023-04-29T20:00:31.388Z,1.58
2023-04-29T20:04:33.260Z,1.77
2023-04-29T20:08:34.984Z,1.48
2023-04-29T20:12:36.764Z,1.25
2023-04-29T20:16:38.601Z,1.40
2023-04-29T20:20:40.362Z,1.10
2023-04-29T20:24:42.107Z,1.20
2023-04-29T20:28:43.835Z,1.13
2023-04-29T20:32:45.905Z,1.10
2023-04-29T20:36:48.374Z,0.98
2023-04-29T20:40:53.774Z,1.05
2023-04-29T20:44:56.500Z,1.25
2023-04-29T20:48:58.326Z,1.70
2023-04-29T20:53:00.629Z,2.20
2023-04-29T20:57:05.500Z,1.60
2023-04-29T21:01:07.805Z,1.65
2023-04-29T21:05:10.276Z,1.50
2023-04-29T21:09:12.228Z,2.10
2023-04-29T21:13:13.959Z,2.20
2023-04-29T21:17:16.304Z,1.40
2023-04-29T21:21:18.121Z,1.20
2023-04-29T21:25:19.846Z,1.60
2023-04-29T21:29:21.527Z,1.23
2023-04-29T21:33:23.213Z,1.88
2023-04-29T21:37:24.988Z,2.63
2023-04-29T21:41:31.168Z,2.40
2023-04-29T21:45:33.024Z,1.77
2023-04-29T21:49:34.851Z,1.92
2023-04-29T21:53:38.151Z,1.40
2023-04-29T21:57:44.256Z,1.30
2023-04-29T22:01:47.413Z,1.30
2023-04-29T22:05:49.255Z,1.58
2023-04-29T22:09:51.307Z,1.10
2023-04-29T22:13:53.303Z,1.10
2023-04-29T22:17:55.162Z,1.10
2023-04-29T22:21:56.908Z,1.20
2023-04-29T22:25:58.620Z,1.20
2023-04-29T22:30:00.433Z,1.23
2023-04-29T22:34:02.209Z,1.00
2023-04-29T22:38:03.984Z,1.55
2023-04-29T22:42:07.076Z,1.50
2023-04-29T22:46:09.705Z,1.30
2023-04-29T22:50:11.655Z,1.60
2023-04-29T22:54:13.389Z,1.25
2023-04-29T22:58:15.112Z,1.20
2023-04-29T23:02:16.842Z,1.23
2023-04-29T23:06:18.626Z,1.38
2023-04-29T23:10:20.490Z,1.20
2023-04-29T23:14:22.307Z,1.10
2023-04-29T23:18:24.021Z,1.00
2023-04-29T23:22:25.735Z,1.20
2023-04-29T23:26:27.569Z,1.55
2023-04-29T23:30:29.334Z,1.75
2023-04-29T23:34:31.059Z,1.92
2023-04-29T23:38:32.767Z,1.90
2023-04-29T23:42:34.659Z,1.80
2023-04-29T23:46:36.410Z,1.60
2023-04-29T23:50:38.291Z,1.40
2023-04-29T23:54:40.090Z,1.20
2023-04-29T23:58:41.914Z,0.95
